sensor_id;sensor_type;location;lat;lon;timestamp;temperature;humidity
47520;DHT22;33252;48.122;11.538;2024-03-22T00:02:21;7.70;99.90
47520;DHT22;33252;48.122;11.538;2024-03-22T00:04:47;7.70;99.90
47520;DHT22;33252;48.122;11.538;2024-03-22T00:07:12;7.70;99.90
47520;DHT22;33252;48.122;11.538;2024-03-22T00:09:38;7.80;99.90
47520;DHT22;33252;48.122;11.538;2024-03-22T00:12:04;7.90;99.90
47520;DHT22;33252;48.122;11.538;2024-03-22T00:14:29;7.90;99.90
47520;DHT22;33252;48.122;11.538;2024-03-22T00:16:55;7.90;99.90
47520;DHT22;33252;48.122;11.538;2024-03-22T00:19:21;7.90;99.90
47520;DHT22;33252;48.122;11.538;2024-03-22T00:21:46;7.90;99.90
47520;DHT22;33252;48.122;11.538;2024-03-22T00:24:12;7.90;99.90
47520;DHT22;33252;48.122;11.538;2024-03-22T00:26:37;7.90;99.90
47520;DHT22;33252;48.122;11.538;2024-03-22T00:29:03;7.80;99.90
47520;DHT22;33252;48.122;11.538;2024-03-22T00:31:28;7.80;99.90
47520;DHT22;33252;48.122;11.538;2024-03-22T00:33:54;7.80;99.90
47520;DHT22;33252;48.122;11.538;2024-03-22T00:36:19;7.70;99.90
47520;DHT22;33252;48.122;11.538;2024-03-22T00:38:46;7.80;99.90
47520;DHT22;33252;48.122;11.538;2024-03-22T00:41:12;7.80;99.90
47520;DHT22;33252;48.122;11.538;2024-03-22T00:43:37;7.80;99.90
47520;DHT22;33252;48.122;11.538;2024-03-22T00:46:03;7.80;99.90
47520;DHT22;33252;48.122;11.538;2024-03-22T00:48:29;7.80;99.90
47520;DHT22;33252;48.122;11.538;2024-03-22T00:50:55;7.80;99.90
47520;DHT22;33252;48.122;11.538;2024-03-22T00:53:20;7.90;99.90
47520;DHT22;33252;48.122;11.538;2024-03-22T00:55:46;7.90;99.90
47520;DHT22;33252;48.122;11.538;2024-03-22T00:58:17;7.80;99.90
47520;DHT22;33252;48.122;11.538;2024-03-22T01:00:43;7.90;99.90
47520;DHT22;33252;48.122;11.538;2024-03-22T01:03:09;7.80;99.90
47520;DHT22;33252;48.122;11.538;2024-03-22T01:05:35;7.80;99.90
47520;DHT22;33252;48.122;11.538;2024-03-22T01:08:01;7.80;99.90
47520;DHT22;33252;48.122;11.538;2024-03-22T01:10:27;7.80;99.90
47520;DHT22;33252;48.122;11.538;2024-03-22T01:12:52;7.80;99.90
47520;DHT22;33252;48.122;11.538;2024-03-22T01:15:18;7.70;99.90
47520;DHT22;33252;48.122;11.538;2024-03-22T01:17:43;7.70;99.90
47520;DHT22;33252;48.122;11.538;2024-03-22T01:20:10;7.80;99.90
47520;DHT22;33252;48.122;11.538;2024-03-22T01:22:35;7.80;99.90
47520;DHT22;33252;48.122;11.538;2024-03-22T01:25:02;7.70;99.90
47520;DHT22;33252;48.122;11.538;2024-03-22T01:27:28;7.70;99.90
47520;DHT22;33252;48.122;11.538;2024-03-22T01:29:53;7.70;99.90
47520;DHT22;33252;48.122;11.538;2024-03-22T01:32:19;7.70;99.90
47520;DHT22;33252;48.122;11.538;2024-03-22T01:34:44;7.60;99.90
47520;DHT22;33252;48.122;11.538;2024-03-22T01:37:10;7.60;99.90
47520;DHT22;33252;48.122;11.538;2024-03-22T01:39:35;7.60;99.90
47520;DHT22;33252;48.122;11.538;2024-03-22T01:42:01;7.60;99.90
47520;DHT22;33252;48.122;11.538;2024-03-22T01:44:31;7.50;99.90
47520;DHT22;33252;48.122;11.538;2024-03-22T01:46:57;7.50;99.90
47520;DHT22;33252;48.122;11.538;2024-03-22T01:49:24;7.50;99.90
47520;DHT22;33252;48.122;11.538;2024-03-22T01:51:50;7.50;99.90
47520;DHT22;33252;48.122;11.538;2024-03-22T01:54:16;7.40;99.90
47520;DHT22;33252;48.122;11.538;2024-03-22T01:56:42;7.50;99.90
47520;DHT22;33252;48.122;11.538;2024-03-22T01:59:08;7.40;99.90
47520;DHT22;33252;48.122;11.538;2024-03-22T02:01:35;7.40;99.90
47520;DHT22;33252;48.122;11.538;2024-03-22T02:04:01;7.40;99.90
47520;DHT22;33252;48.122;11.538;2024-03-22T02:06:27;7.20;99.90
47520;DHT22;33252;48.122;11.538;2024-03-22T02:08:53;7.30;99.90
47520;DHT22;33252;48.122;11.538;2024-03-22T02:11:18;7.30;99.90
47520;DHT22;33252;48.122;11.538;2024-03-22T02:13:45;7.30;99.90
47520;DHT22;33252;48.122;11.538;2024-03-22T02:16:10;7.30;99.90
47520;DHT22;33252;48.122;11.538;2024-03-22T02:18:36;7.20;99.90
47520;DHT22;33252;48.122;11.538;2024-03-22T02:21:02;7.10;99.90
47520;DHT22;33252;48.122;11.538;2024-03-22T02:23:38;7.10;99.90
47520;DHT22;33252;48.122;11.538;2024-03-22T02:26:04;7.10;99.90
47520;DHT22;33252;48.122;11.538;2024-03-22T02:28:30;7.10;99.90
47520;DHT22;33252;48.122;11.538;2024-03-22T02:30:57;7.00;99.90
47520;DHT22;33252;48.122;11.538;2024-03-22T02:33:23;7.00;99.90
47520;DHT22;33252;48.122;11.538;2024-03-22T02:35:49;7.00;99.90
47520;DHT22;33252;48.122;11.538;2024-03-22T02:38:15;7.00;99.90
47520;DHT22;33252;48.122;11.538;2024-03-22T02:40:43;6.90;99.90
47520;DHT22;33252;48.122;11.538;2024-03-22T02:43:08;6.90;99.90
47520;DHT22;33252;48.122;11.538;2024-03-22T02:45:34;6.80;99.90
47520;DHT22;33252;48.122;11.538;2024-03-22T02:47:59;6.80;99.90
47520;DHT22;33252;48.122;11.538;2024-03-22T02:50:25;6.80;99.90
47520;DHT22;33252;48.122;11.538;2024-03-22T02:52:50;6.80;99.90
47520;DHT22;33252;48.122;11.538;2024-03-22T02:55:16;6.90;99.90
47520;DHT22;33252;48.122;11.538;2024-03-22T02:57:42;7.00;99.90
47520;DHT22;33252;48.122;11.538;2024-03-22T03:00:08;7.00;99.90
47520;DHT22;33252;48.122;11.538;2024-03-22T03:02:33;7.00;99.90
47520;DHT22;33252;48.122;11.538;2024-03-22T03:04:59;6.90;99.90
47520;DHT22;33252;48.122;11.538;2024-03-22T03:07:25;6.80;99.90
47520;DHT22;33252;48.122;11.538;2024-03-22T03:09:51;6.80;99.90
47520;DHT22;33252;48.122;11.538;2024-03-22T03:12:16;6.70;99.90
47520;DHT22;33252;48.122;11.538;2024-03-22T03:14:42;6.70;99.90
47520;DHT22;33252;48.122;11.538;2024-03-22T03:17:07;6.60;99.90
47520;DHT22;33252;48.122;11.538;2024-03-22T03:19:33;6.70;99.90
47520;DHT22;33252;48.122;11.538;2024-03-22T03:21:59;6.60;99.90
47520;DHT22;33252;48.122;11.538;2024-03-22T03:24:24;6.60;99.90
47520;DHT22;33252;48.122;11.538;2024-03-22T03:26:50;6.60;99.90
47520;DHT22;33252;48.122;11.538;2024-03-22T03:29:15;6.60;99.90
47520;DHT22;33252;48.122;11.538;2024-03-22T03:31:41;6.60;99.90
47520;DHT22;33252;48.122;11.538;2024-03-22T03:34:06;6.60;99.90
47520;DHT22;33252;48.122;11.538;2024-03-22T03:36:32;6.60;99.90
47520;DHT22;33252;48.122;11.538;2024-03-22T03:38:57;6.60;99.90
47520;DHT22;33252;48.122;11.538;2024-03-22T03:41:23;6.60;99.90
47520;DHT22;33252;48.122;11.538;2024-03-22T03:43:48;6.60;99.90
47520;DHT22;33252;48.122;11.538;2024-03-22T03:46:14;6.60;99.90
47520;DHT22;33252;48.122;11.538;2024-03-22T03:48:39;6.60;99.90
47520;DHT22;33252;48.122;11.538;2024-03-22T03:51:05;6.60;99.90
47520;DHT22;33252;48.122;11.538;2024-03-22T03:53:31;6.50;99.90
47520;DHT22;33252;48.122;11.538;2024-03-22T03:55:56;6.50;99.90
47520;DHT22;33252;48.122;11.538;2024-03-22T03:58:22;6.60;99.90
47520;DHT22;33252;48.122;11.538;2024-03-22T04:00:47;6.60;99.90
47520;DHT22;33252;48.122;11.538;2024-03-22T04:03:13;6.50;99.90
47520;DHT22;33252;48.122;11.538;2024-03-22T04:05:39;6.60;99.90
47520;DHT22;33252;48.122;11.538;2024-03-22T04:08:05;6.60;99.90
47520;DHT22;33252;48.122;11.538;2024-03-22T04:10:30;6.60;99.90
47520;DHT22;33252;48.122;11.538;2024-03-22T04:12:56;6.60;99.90
47520;DHT22;33252;48.122;11.538;2024-03-22T04:15:21;6.50;99.90
47520;DHT22;33252;48.122;11.538;2024-03-22T04:17:47;6.60;99.90
47520;DHT22;33252;48.122;11.538;2024-03-22T04:20:12;6.50;99.90
47520;DHT22;33252;48.122;11.538;2024-03-22T04:22:38;6.60;99.90
47520;DHT22;33252;48.122;11.538;2024-03-22T04:25:04;6.50;99.90
47520;DHT22;33252;48.122;11.538;2024-03-22T04:27:29;6.50;99.90
47520;DHT22;33252;48.122;11.538;2024-03-22T04:29:55;6.50;99.90
47520;DHT22;33252;48.122;11.538;2024-03-22T04:32:20;6.50;99.90
47520;DHT22;33252;48.122;11.538;2024-03-22T04:34:46;6.50;99.90
47520;DHT22;33252;48.122;11.538;2024-03-22T04:37:11;6.60;99.90
47520;DHT22;33252;48.122;11.538;2024-03-22T04:39:38;6.60;99.90
47520;DHT22;33252;48.122;11.538;2024-03-22T04:42:04;6.60;99.90
47520;DHT22;33252;48.122;11.538;2024-03-22T04:44:29;6.60;99.90
47520;DHT22;33252;48.122;11.538;2024-03-22T04:46:55;6.70;99.90
47520;DHT22;33252;48.122;11.538;2024-03-22T04:49:20;6.60;99.90
47520;DHT22;33252;48.122;11.538;2024-03-22T04:51:46;6.60;99.90
47520;DHT22;33252;48.122;11.538;2024-03-22T04:54:12;6.60;99.90
47520;DHT22;33252;48.122;11.538;2024-03-22T04:56:39;6.70;99.90
47520;DHT22;33252;48.122;11.538;2024-03-22T04:59:05;6.70;99.90
47520;DHT22;33252;48.122;11.538;2024-03-22T05:01:30;6.70;99.90
47520;DHT22;33252;48.122;11.538;2024-03-22T05:03:56;6.70;99.90
47520;DHT22;33252;48.122;11.538;2024-03-22T05:06:21;6.70;99.90
47520;DHT22;33252;48.122;11.538;2024-03-22T05:08:47;6.70;99.90
47520;DHT22;33252;48.122;11.538;2024-03-22T05:11:12;6.70;99.90
47520;DHT22;33252;48.122;11.538;2024-03-22T05:13:38;6.70;99.90
47520;DHT22;33252;48.122;11.538;2024-03-22T05:16:06;6.80;99.90
47520;DHT22;33252;48.122;11.538;2024-03-22T05:18:31;6.80;99.90
47520;DHT22;33252;48.122;11.538;2024-03-22T05:20:57;6.80;99.90
47520;DHT22;33252;48.122;11.538;2024-03-22T05:23:22;6.80;99.90
47520;DHT22;33252;48.122;11.538;2024-03-22T05:25:48;6.90;99.90
47520;DHT22;33252;48.122;11.538;2024-03-22T05:28:13;7.00;99.90
47520;DHT22;33252;48.122;11.538;2024-03-22T05:30:39;7.00;99.90
47520;DHT22;33252;48.122;11.538;2024-03-22T05:33:05;7.00;99.90
47520;DHT22;33252;48.122;11.538;2024-03-22T05:35:30;7.00;99.90
47520;DHT22;33252;48.122;11.538;2024-03-22T05:37:56;7.00;99.90
47520;DHT22;33252;48.122;11.538;2024-03-22T05:40:21;7.00;99.90
47520;DHT22;33252;48.122;11.538;2024-03-22T05:42:47;7.00;99.90
47520;DHT22;33252;48.122;11.538;2024-03-22T05:45:12;7.10;99.90
47520;DHT22;33252;48.122;11.538;2024-03-22T05:47:38;7.20;99.90
47520;DHT22;33252;48.122;11.538;2024-03-22T05:50:04;7.20;99.90
47520;DHT22;33252;48.122;11.538;2024-03-22T05:52:32;7.20;99.90
47520;DHT22;33252;48.122;11.538;2024-03-22T05:54:58;7.20;99.90
47520;DHT22;33252;48.122;11.538;2024-03-22T05:57:24;7.20;99.90
47520;DHT22;33252;48.122;11.538;2024-03-22T05:59:49;7.20;99.90
47520;DHT22;33252;48.122;11.538;2024-03-22T06:02:15;7.20;99.90
47520;DHT22;33252;48.122;11.538;2024-03-22T06:04:41;7.20;99.90
47520;DHT22;33252;48.122;11.538;2024-03-22T06:07:06;7.30;99.90
47520;DHT22;33252;48.122;11.538;2024-03-22T06:09:32;7.30;99.90
47520;DHT22;33252;48.122;11.538;2024-03-22T06:12:11;7.30;99.90
47520;DHT22;33252;48.122;11.538;2024-03-22T06:14:37;7.30;99.90
47520;DHT22;33252;48.122;11.538;2024-03-22T06:17:03;7.30;99.90
47520;DHT22;33252;48.122;11.538;2024-03-22T06:19:29;7.30;99.90
47520;DHT22;33252;48.122;11.538;2024-03-22T06:21:55;7.20;99.90
47520;DHT22;33252;48.122;11.538;2024-03-22T06:24:20;7.30;99.90
47520;DHT22;33252;48.122;11.538;2024-03-22T06:26:46;7.30;99.90
47520;DHT22;33252;48.122;11.538;2024-03-22T06:29:11;7.30;99.90
47520;DHT22;33252;48.122;11.538;2024-03-22T06:31:38;7.20;99.90
47520;DHT22;33252;48.122;11.538;2024-03-22T06:34:03;7.20;99.90
47520;DHT22;33252;48.122;11.538;2024-03-22T06:36:31;7.20;99.90
47520;DHT22;33252;48.122;11.538;2024-03-22T06:38:57;7.20;99.90
47520;DHT22;33252;48.122;11.538;2024-03-22T06:41:24;7.30;99.90
47520;DHT22;33252;48.122;11.538;2024-03-22T06:43:49;7.40;99.90
47520;DHT22;33252;48.122;11.538;2024-03-22T06:46:15;7.40;99.90
47520;DHT22;33252;48.122;11.538;2024-03-22T06:48:41;7.40;99.90
47520;DHT22;33252;48.122;11.538;2024-03-22T06:51:06;7.50;99.90
47520;DHT22;33252;48.122;11.538;2024-03-22T06:53:31;7.50;99.90
47520;DHT22;33252;48.122;11.538;2024-03-22T06:55:57;7.60;99.90
47520;DHT22;33252;48.122;11.538;2024-03-22T06:58:22;7.60;99.90
47520;DHT22;33252;48.122;11.538;2024-03-22T07:00:49;7.60;99.90
47520;DHT22;33252;48.122;11.538;2024-03-22T07:03:14;7.70;99.90
47520;DHT22;33252;48.122;11.538;2024-03-22T07:05:40;7.70;99.90
47520;DHT22;33252;48.122;11.538;2024-03-22T07:08:06;7.80;99.90
47520;DHT22;33252;48.122;11.538;2024-03-22T07:10:31;7.90;99.90
47520;DHT22;33252;48.122;11.538;2024-03-22T07:12:57;8.00;99.90
47520;DHT22;33252;48.122;11.538;2024-03-22T07:15:23;8.10;99.90
47520;DHT22;33252;48.122;11.538;2024-03-22T07:17:49;8.20;99.90
47520;DHT22;33252;48.122;11.538;2024-03-22T07:20:16;8.20;99.90
47520;DHT22;33252;48.122;11.538;2024-03-22T07:22:41;8.30;99.90
47520;DHT22;33252;48.122;11.538;2024-03-22T07:25:07;8.40;99.90
47520;DHT22;33252;48.122;11.538;2024-03-22T07:27:35;8.50;99.90
47520;DHT22;33252;48.122;11.538;2024-03-22T07:30:01;8.60;99.90
47520;DHT22;33252;48.122;11.538;2024-03-22T07:32:26;8.70;99.90
47520;DHT22;33252;48.122;11.538;2024-03-22T07:34:52;8.80;99.90
47520;DHT22;33252;48.122;11.538;2024-03-22T07:37:17;8.90;99.90
47520;DHT22;33252;48.122;11.538;2024-03-22T07:39:43;9.00;99.90
47520;DHT22;33252;48.122;11.538;2024-03-22T07:42:08;9.00;99.90
47520;DHT22;33252;48.122;11.538;2024-03-22T07:44:34;9.10;99.90
47520;DHT22;33252;48.122;11.538;2024-03-22T07:46:59;9.10;99.90
47520;DHT22;33252;48.122;11.538;2024-03-22T07:49:25;9.10;99.90
47520;DHT22;33252;48.122;11.538;2024-03-22T07:51:50;9.20;99.90
47520;DHT22;33252;48.122;11.538;2024-03-22T07:54:16;9.20;99.90
47520;DHT22;33252;48.122;11.538;2024-03-22T07:56:41;9.20;99.90
47520;DHT22;33252;48.122;11.538;2024-03-22T07:59:07;9.30;99.90
47520;DHT22;33252;48.122;11.538;2024-03-22T08:01:32;9.40;99.90
47520;DHT22;33252;48.122;11.538;2024-03-22T08:03:58;9.50;99.90
47520;DHT22;33252;48.122;11.538;2024-03-22T08:06:24;9.50;99.90
47520;DHT22;33252;48.122;11.538;2024-03-22T08:08:49;9.60;99.90
47520;DHT22;33252;48.122;11.538;2024-03-22T08:11:15;9.70;99.90
47520;DHT22;33252;48.122;11.538;2024-03-22T08:13:40;9.70;99.90
47520;DHT22;33252;48.122;11.538;2024-03-22T08:16:06;9.80;99.90
47520;DHT22;33252;48.122;11.538;2024-03-22T08:18:32;9.90;99.90
47520;DHT22;33252;48.122;11.538;2024-03-22T08:21:00;10.00;99.90
47520;DHT22;33252;48.122;11.538;2024-03-22T08:23:26;10.20;99.90
47520;DHT22;33252;48.122;11.538;2024-03-22T08:25:51;10.20;99.90
47520;DHT22;33252;48.122;11.538;2024-03-22T08:28:17;10.30;99.90
47520;DHT22;33252;48.122;11.538;2024-03-22T08:30:43;10.50;99.90
47520;DHT22;33252;48.122;11.538;2024-03-22T08:33:09;10.60;99.90
47520;DHT22;33252;48.122;11.538;2024-03-22T08:35:35;10.60;99.90
47520;DHT22;33252;48.122;11.538;2024-03-22T08:38:01;10.70;99.90
47520;DHT22;33252;48.122;11.538;2024-03-22T08:40:27;10.90;99.90
47520;DHT22;33252;48.122;11.538;2024-03-22T08:42:52;11.00;99.90
47520;DHT22;33252;48.122;11.538;2024-03-22T08:45:18;11.20;99.90
47520;DHT22;33252;48.122;11.538;2024-03-22T08:47:43;11.30;99.90
47520;DHT22;33252;48.122;11.538;2024-03-22T08:50:11;11.40;99.90
47520;DHT22;33252;48.122;11.538;2024-03-22T08:52:37;11.50;99.90
47520;DHT22;33252;48.122;11.538;2024-03-22T08:55:04;11.60;99.90
47520;DHT22;33252;48.122;11.538;2024-03-22T08:57:31;11.60;99.90
47520;DHT22;33252;48.122;11.538;2024-03-22T08:59:57;11.60;99.90
47520;DHT22;33252;48.122;11.538;2024-03-22T09:02:22;11.60;99.90
47520;DHT22;33252;48.122;11.538;2024-03-22T09:04:48;11.60;99.90
47520;DHT22;33252;48.122;11.538;2024-03-22T09:07:13;11.70;99.90
47520;DHT22;33252;48.122;11.538;2024-03-22T09:09:39;11.80;99.90
47520;DHT22;33252;48.122;11.538;2024-03-22T09:12:05;11.90;99.90
47520;DHT22;33252;48.122;11.538;2024-03-22T09:14:30;12.00;99.90
47520;DHT22;33252;48.122;11.538;2024-03-22T09:16:56;12.20;99.90
47520;DHT22;33252;48.122;11.538;2024-03-22T09:19:21;12.30;99.90
47520;DHT22;33252;48.122;11.538;2024-03-22T09:21:47;12.30;99.90
47520;DHT22;33252;48.122;11.538;2024-03-22T09:24:12;12.30;99.90
47520;DHT22;33252;48.122;11.538;2024-03-22T09:26:38;12.40;99.90
47520;DHT22;33252;48.122;11.538;2024-03-22T09:29:03;12.50;99.90
47520;DHT22;33252;48.122;11.538;2024-03-22T09:31:30;12.50;99.90
47520;DHT22;33252;48.122;11.538;2024-03-22T09:33:56;12.70;99.90
47520;DHT22;33252;48.122;11.538;2024-03-22T09:36:22;12.70;99.90
47520;DHT22;33252;48.122;11.538;2024-03-22T09:38:47;12.80;99.90
47520;DHT22;33252;48.122;11.538;2024-03-22T09:41:14;12.90;99.90
47520;DHT22;33252;48.122;11.538;2024-03-22T09:43:40;12.90;99.90
47520;DHT22;33252;48.122;11.538;2024-03-22T09:46:06;13.10;99.40
47520;DHT22;33252;48.122;11.538;2024-03-22T09:48:33;13.10;99.00
47520;DHT22;33252;48.122;11.538;2024-03-22T09:51:00;13.10;98.60
47520;DHT22;33252;48.122;11.538;2024-03-22T09:53:27;13.20;98.30
47520;DHT22;33252;48.122;11.538;2024-03-22T09:55:56;13.30;99.10
47520;DHT22;33252;48.122;11.538;2024-03-22T09:58:24;13.30;98.90
47520;DHT22;33252;48.122;11.538;2024-03-22T10:00:50;13.40;98.30
47520;DHT22;33252;48.122;11.538;2024-03-22T10:03:15;13.30;98.50
47520;DHT22;33252;48.122;11.538;2024-03-22T10:05:41;13.40;98.40
47520;DHT22;33252;48.122;11.538;2024-03-22T10:08:07;13.30;97.50
47520;DHT22;33252;48.122;11.538;2024-03-22T10:10:33;13.40;98.40
47520;DHT22;33252;48.122;11.538;2024-03-22T10:13:03;13.60;98.10
47520;DHT22;33252;48.122;11.538;2024-03-22T10:15:30;13.50;98.70
47520;DHT22;33252;48.122;11.538;2024-03-22T10:17:58;13.60;98.20
47520;DHT22;33252;48.122;11.538;2024-03-22T10:20:24;13.70;97.50
47520;DHT22;33252;48.122;11.538;2024-03-22T10:22:55;13.80;96.90
47520;DHT22;33252;48.122;11.538;2024-03-22T10:25:22;13.70;97.50
47520;DHT22;33252;48.122;11.538;2024-03-22T10:27:48;13.80;97.50
47520;DHT22;33252;48.122;11.538;2024-03-22T10:30:16;13.90;97.40
47520;DHT22;33252;48.122;11.538;2024-03-22T10:32:44;13.90;96.90
47520;DHT22;33252;48.122;11.538;2024-03-22T10:35:14;13.90;97.00
47520;DHT22;33252;48.122;11.538;2024-03-22T10:37:40;14.10;97.00
47520;DHT22;33252;48.122;11.538;2024-03-22T10:40:06;14.20;97.20
47520;DHT22;33252;48.122;11.538;2024-03-22T10:42:34;14.40;97.40
47520;DHT22;33252;48.122;11.538;2024-03-22T10:44:59;14.60;97.00
47520;DHT22;33252;48.122;11.538;2024-03-22T10:47:29;14.60;96.40
47520;DHT22;33252;48.122;11.538;2024-03-22T10:50:08;14.60;96.90
47520;DHT22;33252;48.122;11.538;2024-03-22T10:52:54;14.50;96.00
47520;DHT22;33252;48.122;11.538;2024-03-22T10:55:30;14.50;95.90
47520;DHT22;33252;48.122;11.538;2024-03-22T10:57:58;14.50;96.20
47520;DHT22;33252;48.122;11.538;2024-03-22T11:00:31;14.40;96.20
47520;DHT22;33252;48.122;11.538;2024-03-22T11:02:57;14.40;96.10
47520;DHT22;33252;48.122;11.538;2024-03-22T11:05:22;14.40;96.20
47520;DHT22;33252;48.122;11.538;2024-03-22T11:08:04;14.40;95.90
47520;DHT22;33252;48.122;11.538;2024-03-22T11:10:30;14.60;95.60
47520;DHT22;33252;48.122;11.538;2024-03-22T11:13:01;14.70;95.40
47520;DHT22;33252;48.122;11.538;2024-03-22T11:15:28;14.70;95.00
47520;DHT22;33252;48.122;11.538;2024-03-22T11:17:54;14.50;95.90
47520;DHT22;33252;48.122;11.538;2024-03-22T11:20:19;14.50;95.10
47520;DHT22;33252;48.122;11.538;2024-03-22T11:22:45;14.70;95.10
47520;DHT22;33252;48.122;11.538;2024-03-22T11:25:10;14.80;95.30
47520;DHT22;33252;48.122;11.538;2024-03-22T11:27:36;14.80;94.90
47520;DHT22;33252;48.122;11.538;2024-03-22T11:30:01;14.60;94.50
47520;DHT22;33252;48.122;11.538;2024-03-22T11:32:27;14.60;94.60
47520;DHT22;33252;48.122;11.538;2024-03-22T11:34:54;14.60;95.80
47520;DHT22;33252;48.122;11.538;2024-03-22T11:37:19;14.70;95.90
47520;DHT22;33252;48.122;11.538;2024-03-22T11:39:45;14.70;95.50
47520;DHT22;33252;48.122;11.538;2024-03-22T11:42:11;14.90;94.80
47520;DHT22;33252;48.122;11.538;2024-03-22T11:44:37;15.10;95.10
47520;DHT22;33252;48.122;11.538;2024-03-22T11:47:05;15.10;93.70
47520;DHT22;33252;48.122;11.538;2024-03-22T11:49:30;15.10;93.70
47520;DHT22;33252;48.122;11.538;2024-03-22T11:51:56;15.00;93.80
47520;DHT22;33252;48.122;11.538;2024-03-22T11:54:22;15.00;94.50
47520;DHT22;33252;48.122;11.538;2024-03-22T11:56:49;15.20;95.60
47520;DHT22;33252;48.122;11.538;2024-03-22T11:59:17;15.30;94.60
47520;DHT22;33252;48.122;11.538;2024-03-22T12:01:44;15.30;94.30
47520;DHT22;33252;48.122;11.538;2024-03-22T12:04:10;15.40;94.90
47520;DHT22;33252;48.122;11.538;2024-03-22T12:06:42;15.40;93.80
47520;DHT22;33252;48.122;11.538;2024-03-22T12:09:07;15.40;94.50
47520;DHT22;33252;48.122;11.538;2024-03-22T12:11:35;15.40;93.90
47520;DHT22;33252;48.122;11.538;2024-03-22T12:14:00;15.40;94.40
47520;DHT22;33252;48.122;11.538;2024-03-22T12:16:26;15.50;94.60
47520;DHT22;33252;48.122;11.538;2024-03-22T12:18:51;15.60;94.40
47520;DHT22;33252;48.122;11.538;2024-03-22T12:21:17;15.60;94.00
47520;DHT22;33252;48.122;11.538;2024-03-22T12:23:42;15.60;94.40
47520;DHT22;33252;48.122;11.538;2024-03-22T12:26:08;15.60;94.10
47520;DHT22;33252;48.122;11.538;2024-03-22T12:28:33;15.70;94.30
47520;DHT22;33252;48.122;11.538;2024-03-22T12:30:59;15.70;94.30
47520;DHT22;33252;48.122;11.538;2024-03-22T12:33:24;15.50;93.40
47520;DHT22;33252;48.122;11.538;2024-03-22T12:35:50;15.50;93.30
47520;DHT22;33252;48.122;11.538;2024-03-22T12:38:16;15.50;93.80
47520;DHT22;33252;48.122;11.538;2024-03-22T12:40:43;15.60;94.70
47520;DHT22;33252;48.122;11.538;2024-03-22T12:43:09;15.80;93.80
47520;DHT22;33252;48.122;11.538;2024-03-22T12:45:35;16.00;93.90
47520;DHT22;33252;48.122;11.538;2024-03-22T12:48:01;16.10;93.00
47520;DHT22;33252;48.122;11.538;2024-03-22T12:50:26;16.20;93.50
47520;DHT22;33252;48.122;11.538;2024-03-22T12:52:52;16.20;92.80
47520;DHT22;33252;48.122;11.538;2024-03-22T12:55:18;16.30;93.90
47520;DHT22;33252;48.122;11.538;2024-03-22T12:57:43;16.50;92.40
47520;DHT22;33252;48.122;11.538;2024-03-22T13:00:09;16.70;93.10
47520;DHT22;33252;48.122;11.538;2024-03-22T13:02:41;16.70;92.50
47520;DHT22;33252;48.122;11.538;2024-03-22T13:05:07;16.80;91.70
47520;DHT22;33252;48.122;11.538;2024-03-22T13:07:33;16.80;92.30
47520;DHT22;33252;48.122;11.538;2024-03-22T13:09:59;16.70;91.80
47520;DHT22;33252;48.122;11.538;2024-03-22T13:12:26;17.00;91.90
47520;DHT22;33252;48.122;11.538;2024-03-22T13:14:52;17.20;91.30
47520;DHT22;33252;48.122;11.538;2024-03-22T13:17:17;17.00;91.60
47520;DHT22;33252;48.122;11.538;2024-03-22T13:19:43;17.40;91.00
47520;DHT22;33252;48.122;11.538;2024-03-22T13:22:08;17.40;90.20
47520;DHT22;33252;48.122;11.538;2024-03-22T13:24:34;17.50;90.30
47520;DHT22;33252;48.122;11.538;2024-03-22T13:27:01;17.80;90.20
47520;DHT22;33252;48.122;11.538;2024-03-22T13:29:28;17.60;90.20
47520;DHT22;33252;48.122;11.538;2024-03-22T13:31:53;17.80;89.80
47520;DHT22;33252;48.122;11.538;2024-03-22T13:34:19;18.00;90.20
47520;DHT22;33252;48.122;11.538;2024-03-22T13:36:44;18.10;89.40
47520;DHT22;33252;48.122;11.538;2024-03-22T13:39:10;18.20;89.40
47520;DHT22;33252;48.122;11.538;2024-03-22T13:41:36;18.30;88.00
47520;DHT22;33252;48.122;11.538;2024-03-22T13:44:01;18.20;86.50
47520;DHT22;33252;48.122;11.538;2024-03-22T13:46:29;18.50;87.40
47520;DHT22;33252;48.122;11.538;2024-03-22T13:48:54;18.50;87.10
47520;DHT22;33252;48.122;11.538;2024-03-22T13:51:21;18.60;85.50
47520;DHT22;33252;48.122;11.538;2024-03-22T13:53:47;18.80;85.20
47520;DHT22;33252;48.122;11.538;2024-03-22T13:56:12;19.00;82.80
47520;DHT22;33252;48.122;11.538;2024-03-22T13:58:38;18.80;83.30
47520;DHT22;33252;48.122;11.538;2024-03-22T14:01:03;19.10;83.50
47520;DHT22;33252;48.122;11.538;2024-03-22T14:03:29;19.20;83.90
47520;DHT22;33252;48.122;11.538;2024-03-22T14:05:54;19.10;81.40
47520;DHT22;33252;48.122;11.538;2024-03-22T14:08:20;19.10;82.80
47520;DHT22;33252;48.122;11.538;2024-03-22T14:10:46;19.50;80.70
47520;DHT22;33252;48.122;11.538;2024-03-22T14:13:11;19.50;79.30
47520;DHT22;33252;48.122;11.538;2024-03-22T14:15:37;19.80;80.10
47520;DHT22;33252;48.122;11.538;2024-03-22T14:18:04;19.60;78.50
47520;DHT22;33252;48.122;11.538;2024-03-22T14:20:30;19.80;78.00
47520;DHT22;33252;48.122;11.538;2024-03-22T14:22:56;19.80;78.50
47520;DHT22;33252;48.122;11.538;2024-03-22T14:25:21;20.00;77.40
47520;DHT22;33252;48.122;11.538;2024-03-22T14:27:47;20.00;78.00
47520;DHT22;33252;48.122;11.538;2024-03-22T14:30:14;19.90;77.80
47520;DHT22;33252;48.122;11.538;2024-03-22T14:32:40;20.20;77.00
47520;DHT22;33252;48.122;11.538;2024-03-22T14:35:07;20.30;77.30
47520;DHT22;33252;48.122;11.538;2024-03-22T14:37:32;20.10;76.20
47520;DHT22;33252;48.122;11.538;2024-03-22T14:39:58;20.10;76.20
47520;DHT22;33252;48.122;11.538;2024-03-22T14:42:25;20.10;75.20
47520;DHT22;33252;48.122;11.538;2024-03-22T14:44:50;19.80;76.30
47520;DHT22;33252;48.122;11.538;2024-03-22T14:47:16;20.00;74.80
47520;DHT22;33252;48.122;11.538;2024-03-22T14:49:42;19.90;73.70
47520;DHT22;33252;48.122;11.538;2024-03-22T14:52:08;20.00;72.60
47520;DHT22;33252;48.122;11.538;2024-03-22T14:54:33;20.10;71.70
47520;DHT22;33252;48.122;11.538;2024-03-22T14:56:59;20.10;69.50
47520;DHT22;33252;48.122;11.538;2024-03-22T14:59:28;19.90;68.10
47520;DHT22;33252;48.122;11.538;2024-03-22T15:01:54;19.30;65.10
47520;DHT22;33252;48.122;11.538;2024-03-22T15:04:20;19.00;66.60
47520;DHT22;33252;48.122;11.538;2024-03-22T15:06:46;18.90;65.70
47520;DHT22;33252;48.122;11.538;2024-03-22T15:09:13;18.70;67.10
47520;DHT22;33252;48.122;11.538;2024-03-22T15:11:39;18.50;67.30
47520;DHT22;33252;48.122;11.538;2024-03-22T15:14:04;18.50;67.30
47520;DHT22;33252;48.122;11.538;2024-03-22T15:16:31;18.40;66.70
47520;DHT22;33252;48.122;11.538;2024-03-22T15:18:56;18.30;68.00